<?xml version="1.0" encoding="UTF-8" standalone="no" ?>
<gpx xmlns="http://www.topografix.com/GPX/1/1" xmlns:xsi="http://www.w3.org/2001/XMLSchema-instance" xsi:schemaLocation="http://www.topografix.com/GPX/1/1 http://www.topografix.com/GPX/1/1/gpx.xsd" version="1.1" creator="VisuGPX - https://www.visugpx.com">
  <metadata>
    <name>piste rouge trjv</name>
    <desc><![CDATA[piste rouge pour le TRJV]]></desc>
  </metadata>
  <trk>
    <name><![CDATA[piste rouge trjv_1]]></name>
    <trkseg>
      <trkpt lat="45.60451" lon="6.10615">
        <ele>1078</ele>
        <time>2014-02-22T14:13:58Z</time>
      </trkpt>
      <trkpt lat="45.60472" lon="6.10639">
        <ele>1073</ele>
        <time>2014-02-22T14:14:31Z</time>
      </trkpt>
      <trkpt lat="45.60474" lon="6.10642">
        <ele>1073</ele>
        <time>2014-02-22T14:14:36Z</time>
      </trkpt>
      <trkpt lat="45.60475" lon="6.10644">
        <ele>1073</ele>
        <time>2014-02-22T14:14:40Z</time>
      </trkpt>
      <trkpt lat="45.60477" lon="6.10645">
        <ele>1073</ele>
        <time>2014-02-22T14:14:42Z</time>
      </trkpt>
      <trkpt lat="45.60478" lon="6.10647">
        <ele>1072</ele>
        <time>2014-02-22T14:14:44Z</time>
      </trkpt>
      <trkpt lat="45.60479" lon="6.10648">
        <ele>1071</ele>
        <time>2014-02-22T14:14:46Z</time>
      </trkpt>
      <trkpt lat="45.6048" lon="6.10649">
        <ele>1071</ele>
        <time>2014-02-22T14:14:48Z</time>
      </trkpt>
      <trkpt lat="45.60481" lon="6.10649">
        <ele>1071</ele>
        <time>2014-02-22T14:14:50Z</time>
      </trkpt>
      <trkpt lat="45.60482" lon="6.1065">
        <ele>1071</ele>
        <time>2014-02-22T14:14:52Z</time>
      </trkpt>
      <trkpt lat="45.60484" lon="6.1065">
        <ele>1070</ele>
        <time>2014-02-22T14:14:54Z</time>
      </trkpt>
      <trkpt lat="45.60486" lon="6.10651">
        <ele>1069</ele>
        <time>2014-02-22T14:14:57Z</time>
      </trkpt>
      <trkpt lat="45.60487" lon="6.10653">
        <ele>1069</ele>
        <time>2014-02-22T14:14:59Z</time>
      </trkpt>
      <trkpt lat="45.60488" lon="6.10654">
        <ele>1069</ele>
        <time>2014-02-22T14:15:01Z</time>
      </trkpt>
      <trkpt lat="45.60489" lon="6.10654">
        <ele>1069</ele>
        <time>2014-02-22T14:15:04Z</time>
      </trkpt>
      <trkpt lat="45.60491" lon="6.10653">
        <ele>1069</ele>
        <time>2014-02-22T14:15:06Z</time>
      </trkpt>
      <trkpt lat="45.60488" lon="6.10655">
        <ele>1074</ele>
        <time>2014-02-22T14:15:11Z</time>
      </trkpt>
      <trkpt lat="45.60487" lon="6.10655">
        <ele>1075</ele>
        <time>2014-02-22T14:15:15Z</time>
      </trkpt>
      <trkpt lat="45.60484" lon="6.10655">
        <ele>1080</ele>
        <time>2014-02-22T14:15:19Z</time>
      </trkpt>
      <trkpt lat="45.60485" lon="6.10653">
        <ele>1080</ele>
        <time>2014-02-22T14:15:22Z</time>
      </trkpt>
      <trkpt lat="45.60487" lon="6.10653">
        <ele>1080</ele>
        <time>2014-02-22T14:15:25Z</time>
      </trkpt>
      <trkpt lat="45.60491" lon="6.10654">
        <ele>1080</ele>
        <time>2014-02-22T14:15:28Z</time>
      </trkpt>
      <trkpt lat="45.60495" lon="6.10653">
        <ele>1078</ele>
        <time>2014-02-22T14:15:30Z</time>
      </trkpt>
      <trkpt lat="45.60497" lon="6.10652">
        <ele>1076</ele>
        <time>2014-02-22T14:15:32Z</time>
      </trkpt>
      <trkpt lat="45.60492" lon="6.10643">
        <ele>1071</ele>
        <time>2014-02-22T14:15:38Z</time>
      </trkpt>
      <trkpt lat="45.60493" lon="6.10641">
        <ele>1071</ele>
        <time>2014-02-22T14:15:40Z</time>
      </trkpt>
      <trkpt lat="45.60496" lon="6.10641">
        <ele>1071</ele>
        <time>2014-02-22T14:15:42Z</time>
      </trkpt>
      <trkpt lat="45.60498" lon="6.1064">
        <ele>1069</ele>
        <time>2014-02-22T14:15:45Z</time>
      </trkpt>
      <trkpt lat="45.605" lon="6.1064">
        <ele>1067</ele>
        <time>2014-02-22T14:15:47Z</time>
      </trkpt>
      <trkpt lat="45.60502" lon="6.10642">
        <ele>1064</ele>
        <time>2014-02-22T14:15:50Z</time>
      </trkpt>
      <trkpt lat="45.60506" lon="6.10644">
        <ele>1064</ele>
        <time>2014-02-22T14:15:53Z</time>
      </trkpt>
      <trkpt lat="45.60507" lon="6.10636">
        <ele>1064</ele>
        <time>2014-02-22T14:15:58Z</time>
      </trkpt>
      <trkpt lat="45.60508" lon="6.10634">
        <ele>1064</ele>
        <time>2014-02-22T14:16:01Z</time>
      </trkpt>
      <trkpt lat="45.60506" lon="6.10631">
        <ele>1063</ele>
        <time>2014-02-22T14:16:03Z</time>
      </trkpt>
      <trkpt lat="45.60507" lon="6.10627">
        <ele>1063</ele>
        <time>2014-02-22T14:16:06Z</time>
      </trkpt>
      <trkpt lat="45.60509" lon="6.10626">
        <ele>1063</ele>
        <time>2014-02-22T14:16:10Z</time>
      </trkpt>
      <trkpt lat="45.6051" lon="6.10625">
        <ele>1063</ele>
        <time>2014-02-22T14:16:13Z</time>
      </trkpt>
      <trkpt lat="45.60512" lon="6.10622">
        <ele>1063</ele>
        <time>2014-02-22T14:16:18Z</time>
      </trkpt>
      <trkpt lat="45.60512" lon="6.10621">
        <ele>1063</ele>
        <time>2014-02-22T14:16:20Z</time>
      </trkpt>
      <trkpt lat="45.60511" lon="6.10618">
        <ele>1064</ele>
        <time>2014-02-22T14:16:22Z</time>
      </trkpt>
      <trkpt lat="45.60513" lon="6.10614">
        <ele>1064</ele>
        <time>2014-02-22T14:16:24Z</time>
      </trkpt>
      <trkpt lat="45.60513" lon="6.10612">
        <ele>1064</ele>
        <time>2014-02-22T14:16:26Z</time>
      </trkpt>
      <trkpt lat="45.60515" lon="6.10609">
        <ele>1064</ele>
        <time>2014-02-22T14:16:28Z</time>
      </trkpt>
      <trkpt lat="45.60517" lon="6.10604">
        <ele>1064</ele>
        <time>2014-02-22T14:16:31Z</time>
      </trkpt>
      <trkpt lat="45.60521" lon="6.10601">
        <ele>1064</ele>
        <time>2014-02-22T14:16:33Z</time>
      </trkpt>
      <trkpt lat="45.60525" lon="6.10598">
        <ele>1063</ele>
        <time>2014-02-22T14:16:35Z</time>
      </trkpt>
      <trkpt lat="45.60529" lon="6.10598">
        <ele>1058</ele>
        <time>2014-02-22T14:16:40Z</time>
      </trkpt>
      <trkpt lat="45.6053" lon="6.10598">
        <ele>1056</ele>
        <time>2014-02-22T14:16:42Z</time>
      </trkpt>
      <trkpt lat="45.60531" lon="6.10598">
        <ele>1054</ele>
        <time>2014-02-22T14:16:44Z</time>
      </trkpt>
      <trkpt lat="45.60533" lon="6.10598">
        <ele>1051</ele>
        <time>2014-02-22T14:16:47Z</time>
      </trkpt>
      <trkpt lat="45.60535" lon="6.10598">
        <ele>1048</ele>
        <time>2014-02-22T14:16:50Z</time>
      </trkpt>
      <trkpt lat="45.60538" lon="6.10597">
        <ele>1047</ele>
        <time>2014-02-22T14:16:53Z</time>
      </trkpt>
      <trkpt lat="45.60538" lon="6.10606">
        <ele>1047</ele>
        <time>2014-02-22T14:16:59Z</time>
      </trkpt>
      <trkpt lat="45.60539" lon="6.10608">
        <ele>1047</ele>
        <time>2014-02-22T14:17:02Z</time>
      </trkpt>
      <trkpt lat="45.60537" lon="6.10614">
        <ele>1047</ele>
        <time>2014-02-22T14:17:08Z</time>
      </trkpt>
      <trkpt lat="45.60538" lon="6.10615">
        <ele>1047</ele>
        <time>2014-02-22T14:17:10Z</time>
      </trkpt>
      <trkpt lat="45.60541" lon="6.10614">
        <ele>1047</ele>
        <time>2014-02-22T14:17:12Z</time>
      </trkpt>
      <trkpt lat="45.60542" lon="6.10617">
        <ele>1047</ele>
        <time>2014-02-22T14:17:15Z</time>
      </trkpt>
      <trkpt lat="45.60543" lon="6.10618">
        <ele>1047</ele>
        <time>2014-02-22T14:17:18Z</time>
      </trkpt>
      <trkpt lat="45.60545" lon="6.1062">
        <ele>1047</ele>
        <time>2014-02-22T14:17:20Z</time>
      </trkpt>
      <trkpt lat="45.60546" lon="6.1062">
        <ele>1047</ele>
        <time>2014-02-22T14:17:22Z</time>
      </trkpt>
      <trkpt lat="45.60545" lon="6.10615">
        <ele>1047</ele>
        <time>2014-02-22T14:17:24Z</time>
      </trkpt>
      <trkpt lat="45.60544" lon="6.10611">
        <ele>1047</ele>
        <time>2014-02-22T14:17:26Z</time>
      </trkpt>
      <trkpt lat="45.60544" lon="6.10605">
        <ele>1047</ele>
        <time>2014-02-22T14:17:28Z</time>
      </trkpt>
      <trkpt lat="45.60544" lon="6.106">
        <ele>1047</ele>
        <time>2014-02-22T14:17:31Z</time>
      </trkpt>
      <trkpt lat="45.60543" lon="6.10597">
        <ele>1047</ele>
        <time>2014-02-22T14:17:33Z</time>
      </trkpt>
      <trkpt lat="45.60543" lon="6.10595">
        <ele>1045</ele>
        <time>2014-02-22T14:17:35Z</time>
      </trkpt>
      <trkpt lat="45.60543" lon="6.10593">
        <ele>1043</ele>
        <time>2014-02-22T14:17:37Z</time>
      </trkpt>
      <trkpt lat="45.60542" lon="6.10589">
        <ele>1042</ele>
        <time>2014-02-22T14:17:39Z</time>
      </trkpt>
      <trkpt lat="45.60542" lon="6.10586">
        <ele>1042</ele>
        <time>2014-02-22T14:17:42Z</time>
      </trkpt>
      <trkpt lat="45.60542" lon="6.10582">
        <ele>1042</ele>
        <time>2014-02-22T14:17:44Z</time>
      </trkpt>
      <trkpt lat="45.60544" lon="6.10578">
        <ele>1041</ele>
        <time>2014-02-22T14:17:46Z</time>
      </trkpt>
      <trkpt lat="45.60546" lon="6.10575">
        <ele>1041</ele>
        <time>2014-02-22T14:17:49Z</time>
      </trkpt>
      <trkpt lat="45.60548" lon="6.10574">
        <ele>1041</ele>
        <time>2014-02-22T14:17:52Z</time>
      </trkpt>
      <trkpt lat="45.60548" lon="6.10572">
        <ele>1041</ele>
        <time>2014-02-22T14:17:54Z</time>
      </trkpt>
      <trkpt lat="45.60548" lon="6.1057">
        <ele>1041</ele>
        <time>2014-02-22T14:17:57Z</time>
      </trkpt>
      <trkpt lat="45.60549" lon="6.10566">
        <ele>1041</ele>
        <time>2014-02-22T14:17:59Z</time>
      </trkpt>
      <trkpt lat="45.60551" lon="6.10563">
        <ele>1041</ele>
        <time>2014-02-22T14:18:01Z</time>
      </trkpt>
      <trkpt lat="45.6055" lon="6.10561">
        <ele>1039</ele>
        <time>2014-02-22T14:18:04Z</time>
      </trkpt>
      <trkpt lat="45.60551" lon="6.10558">
        <ele>1035</ele>
        <time>2014-02-22T14:18:08Z</time>
      </trkpt>
      <trkpt lat="45.60552" lon="6.10556">
        <ele>1033</ele>
        <time>2014-02-22T14:18:10Z</time>
      </trkpt>
      <trkpt lat="45.60552" lon="6.10553">
        <ele>1031</ele>
        <time>2014-02-22T14:18:14Z</time>
      </trkpt>
      <trkpt lat="45.60551" lon="6.10553">
        <ele>1031</ele>
        <time>2014-02-22T14:18:17Z</time>
      </trkpt>
      <trkpt lat="45.60554" lon="6.10553">
        <ele>1031</ele>
        <time>2014-02-22T14:18:19Z</time>
      </trkpt>
      <trkpt lat="45.60555" lon="6.10555">
        <ele>1031</ele>
        <time>2014-02-22T14:18:21Z</time>
      </trkpt>
      <trkpt lat="45.60557" lon="6.10555">
        <ele>1031</ele>
        <time>2014-02-22T14:18:23Z</time>
      </trkpt>
      <trkpt lat="45.6056" lon="6.10554">
        <ele>1032</ele>
        <time>2014-02-22T14:18:26Z</time>
      </trkpt>
      <trkpt lat="45.60562" lon="6.10552">
        <ele>1032</ele>
        <time>2014-02-22T14:18:30Z</time>
      </trkpt>
      <trkpt lat="45.60561" lon="6.1055">
        <ele>1032</ele>
        <time>2014-02-22T14:18:34Z</time>
      </trkpt>
      <trkpt lat="45.60569" lon="6.10542">
        <ele>1032</ele>
        <time>2014-02-22T14:18:37Z</time>
      </trkpt>
      <trkpt lat="45.60573" lon="6.10539">
        <ele>1038</ele>
        <time>2014-02-22T14:18:41Z</time>
      </trkpt>
      <trkpt lat="45.60574" lon="6.10539">
        <ele>1038</ele>
        <time>2014-02-22T14:18:44Z</time>
      </trkpt>
      <trkpt lat="45.60575" lon="6.1054">
        <ele>1038</ele>
        <time>2014-02-22T14:18:46Z</time>
      </trkpt>
      <trkpt lat="45.60577" lon="6.10539">
        <ele>1038</ele>
        <time>2014-02-22T14:18:48Z</time>
      </trkpt>
      <trkpt lat="45.60576" lon="6.10538">
        <ele>1038</ele>
        <time>2014-02-22T14:18:51Z</time>
      </trkpt>
      <trkpt lat="45.60577" lon="6.10537">
        <ele>1038</ele>
        <time>2014-02-22T14:18:53Z</time>
      </trkpt>
      <trkpt lat="45.60579" lon="6.10536">
        <ele>1039</ele>
        <time>2014-02-22T14:18:58Z</time>
      </trkpt>
      <trkpt lat="45.60581" lon="6.10532">
        <ele>1041</ele>
        <time>2014-02-22T14:19:01Z</time>
      </trkpt>
      <trkpt lat="45.60583" lon="6.10531">
        <ele>1041</ele>
        <time>2014-02-22T14:19:03Z</time>
      </trkpt>
      <trkpt lat="45.60584" lon="6.10529">
        <ele>1041</ele>
        <time>2014-02-22T14:19:05Z</time>
      </trkpt>
      <trkpt lat="45.60586" lon="6.10527">
        <ele>1041</ele>
        <time>2014-02-22T14:19:08Z</time>
      </trkpt>
      <trkpt lat="45.60587" lon="6.10524">
        <ele>1041</ele>
        <time>2014-02-22T14:19:10Z</time>
      </trkpt>
      <trkpt lat="45.60588" lon="6.10522">
        <ele>1041</ele>
        <time>2014-02-22T14:19:12Z</time>
      </trkpt>
      <trkpt lat="45.60588" lon="6.10519">
        <ele>1041</ele>
        <time>2014-02-22T14:19:14Z</time>
      </trkpt>
      <trkpt lat="45.60587" lon="6.10516">
        <ele>1041</ele>
        <time>2014-02-22T14:19:16Z</time>
      </trkpt>
      <trkpt lat="45.60588" lon="6.10514">
        <ele>1041</ele>
        <time>2014-02-22T14:19:19Z</time>
      </trkpt>
      <trkpt lat="45.6059" lon="6.10513">
        <ele>1040</ele>
        <time>2014-02-22T14:19:21Z</time>
      </trkpt>
      <trkpt lat="45.60591" lon="6.10515">
        <ele>1039</ele>
        <time>2014-02-22T14:19:24Z</time>
      </trkpt>
      <trkpt lat="45.60593" lon="6.10516">
        <ele>1038</ele>
        <time>2014-02-22T14:19:26Z</time>
      </trkpt>
      <trkpt lat="45.60596" lon="6.10517">
        <ele>1036</ele>
        <time>2014-02-22T14:19:28Z</time>
      </trkpt>
      <trkpt lat="45.60596" lon="6.1052">
        <ele>1034</ele>
        <time>2014-02-22T14:19:30Z</time>
      </trkpt>
      <trkpt lat="45.60596" lon="6.10524">
        <ele>1032</ele>
        <time>2014-02-22T14:19:32Z</time>
      </trkpt>
      <trkpt lat="45.60596" lon="6.10526">
        <ele>1030</ele>
        <time>2014-02-22T14:19:34Z</time>
      </trkpt>
      <trkpt lat="45.60598" lon="6.10531">
        <ele>1027</ele>
        <time>2014-02-22T14:19:37Z</time>
      </trkpt>
      <trkpt lat="45.60598" lon="6.10533">
        <ele>1025</ele>
        <time>2014-02-22T14:19:39Z</time>
      </trkpt>
      <trkpt lat="45.606" lon="6.10534">
        <ele>1024</ele>
        <time>2014-02-22T14:19:41Z</time>
      </trkpt>
      <trkpt lat="45.60601" lon="6.10534">
        <ele>1023</ele>
        <time>2014-02-22T14:19:43Z</time>
      </trkpt>
      <trkpt lat="45.60603" lon="6.10536">
        <ele>1023</ele>
        <time>2014-02-22T14:19:45Z</time>
      </trkpt>
      <trkpt lat="45.60604" lon="6.10536">
        <ele>1023</ele>
        <time>2014-02-22T14:19:51Z</time>
      </trkpt>
      <trkpt lat="45.60603" lon="6.10536">
        <ele>1023</ele>
        <time>2014-02-22T14:19:53Z</time>
      </trkpt>
      <trkpt lat="45.60601" lon="6.10535">
        <ele>1023</ele>
        <time>2014-02-22T14:19:55Z</time>
      </trkpt>
      <trkpt lat="45.60601" lon="6.10533">
        <ele>1023</ele>
        <time>2014-02-22T14:19:57Z</time>
      </trkpt>
      <trkpt lat="45.60603" lon="6.10531">
        <ele>1023</ele>
        <time>2014-02-22T14:19:59Z</time>
      </trkpt>
      <trkpt lat="45.60601" lon="6.10531">
        <ele>1023</ele>
        <time>2014-02-22T14:20:02Z</time>
      </trkpt>
      <trkpt lat="45.60607" lon="6.10533">
        <ele>1038</ele>
        <time>2014-02-22T14:20:13Z</time>
      </trkpt>
      <trkpt lat="45.60605" lon="6.10534">
        <ele>1036</ele>
        <time>2014-02-22T14:20:15Z</time>
      </trkpt>
      <trkpt lat="45.60597" lon="6.10536">
        <ele>1031</ele>
        <time>2014-02-22T14:20:18Z</time>
      </trkpt>
      <trkpt lat="45.60595" lon="6.10534">
        <ele>1023</ele>
        <time>2014-02-22T14:20:22Z</time>
      </trkpt>
      <trkpt lat="45.60596" lon="6.10532">
        <ele>1020</ele>
        <time>2014-02-22T14:20:25Z</time>
      </trkpt>
      <trkpt lat="45.60598" lon="6.1053">
        <ele>1020</ele>
        <time>2014-02-22T14:20:27Z</time>
      </trkpt>
      <trkpt lat="45.60601" lon="6.10528">
        <ele>1020</ele>
        <time>2014-02-22T14:20:29Z</time>
      </trkpt>
      <trkpt lat="45.60602" lon="6.10527">
        <ele>1022</ele>
        <time>2014-02-22T14:20:31Z</time>
      </trkpt>
      <trkpt lat="45.60604" lon="6.10526">
        <ele>1025</ele>
        <time>2014-02-22T14:20:34Z</time>
      </trkpt>
      <trkpt lat="45.60602" lon="6.10526">
        <ele>1035</ele>
        <time>2014-02-22T14:20:36Z</time>
      </trkpt>
      <trkpt lat="45.60601" lon="6.10528">
        <ele>1038</ele>
        <time>2014-02-22T14:20:40Z</time>
      </trkpt>
      <trkpt lat="45.60599" lon="6.10529">
        <ele>1040</ele>
        <time>2014-02-22T14:20:43Z</time>
      </trkpt>
      <trkpt lat="45.60596" lon="6.10528">
        <ele>1044</ele>
        <time>2014-02-22T14:20:48Z</time>
      </trkpt>
      <trkpt lat="45.60594" lon="6.1053">
        <ele>1046</ele>
        <time>2014-02-22T14:20:53Z</time>
      </trkpt>
      <trkpt lat="45.60595" lon="6.1053">
        <ele>1047</ele>
        <time>2014-02-22T14:20:56Z</time>
      </trkpt>
      <trkpt lat="45.60592" lon="6.10527">
        <ele>1052</ele>
        <time>2014-02-22T14:20:58Z</time>
      </trkpt>
      <trkpt lat="45.60591" lon="6.10527">
        <ele>1052</ele>
        <time>2014-02-22T14:21:00Z</time>
      </trkpt>
      <trkpt lat="45.60592" lon="6.10529">
        <ele>1052</ele>
        <time>2014-02-22T14:21:06Z</time>
      </trkpt>
      <trkpt lat="45.60593" lon="6.10531">
        <ele>1050</ele>
        <time>2014-02-22T14:21:09Z</time>
      </trkpt>
      <trkpt lat="45.60601" lon="6.1053">
        <ele>1039</ele>
        <time>2014-02-22T14:21:13Z</time>
      </trkpt>
      <trkpt lat="45.60603" lon="6.10527">
        <ele>1039</ele>
        <time>2014-02-22T14:21:15Z</time>
      </trkpt>
      <trkpt lat="45.60606" lon="6.10524">
        <ele>1038</ele>
        <time>2014-02-22T14:21:18Z</time>
      </trkpt>
      <trkpt lat="45.60604" lon="6.10523">
        <ele>1036</ele>
        <time>2014-02-22T14:21:20Z</time>
      </trkpt>
      <trkpt lat="45.60603" lon="6.10522">
        <ele>1036</ele>
        <time>2014-02-22T14:21:22Z</time>
      </trkpt>
      <trkpt lat="45.606" lon="6.1052">
        <ele>1036</ele>
        <time>2014-02-22T14:21:24Z</time>
      </trkpt>
      <trkpt lat="45.60603" lon="6.10517">
        <ele>1036</ele>
        <time>2014-02-22T14:21:30Z</time>
      </trkpt>
      <trkpt lat="45.60607" lon="6.10515">
        <ele>1036</ele>
        <time>2014-02-22T14:21:32Z</time>
      </trkpt>
      <trkpt lat="45.60605" lon="6.10521">
        <ele>1011</ele>
        <time>2014-02-22T14:21:38Z</time>
      </trkpt>
      <trkpt lat="45.60603" lon="6.1052">
        <ele>1012</ele>
        <time>2014-02-22T14:21:40Z</time>
      </trkpt>
      <trkpt lat="45.60601" lon="6.1052">
        <ele>1012</ele>
        <time>2014-02-22T14:21:43Z</time>
      </trkpt>
      <trkpt lat="45.60599" lon="6.10522">
        <ele>1014</ele>
        <time>2014-02-22T14:21:45Z</time>
      </trkpt>
      <trkpt lat="45.60597" lon="6.10522">
        <ele>1016</ele>
        <time>2014-02-22T14:21:47Z</time>
      </trkpt>
      <trkpt lat="45.60593" lon="6.10523">
        <ele>1019</ele>
        <time>2014-02-22T14:21:50Z</time>
      </trkpt>
      <trkpt lat="45.60592" lon="6.10523">
        <ele>1020</ele>
        <time>2014-02-22T14:21:52Z</time>
      </trkpt>
      <trkpt lat="45.60589" lon="6.10524">
        <ele>1020</ele>
        <time>2014-02-22T14:21:54Z</time>
      </trkpt>
      <trkpt lat="45.60587" lon="6.10525">
        <ele>1021</ele>
        <time>2014-02-22T14:21:56Z</time>
      </trkpt>
      <trkpt lat="45.60585" lon="6.10527">
        <ele>1021</ele>
        <time>2014-02-22T14:22:00Z</time>
      </trkpt>
      <trkpt lat="45.60585" lon="6.10529">
        <ele>1021</ele>
        <time>2014-02-22T14:22:02Z</time>
      </trkpt>
      <trkpt lat="45.6058" lon="6.10534">
        <ele>1021</ele>
        <time>2014-02-22T14:22:04Z</time>
      </trkpt>
      <trkpt lat="45.60571" lon="6.10543">
        <ele>1021</ele>
        <time>2014-02-22T14:22:06Z</time>
      </trkpt>
      <trkpt lat="45.60566" lon="6.10546">
        <ele>1019</ele>
        <time>2014-02-22T14:22:08Z</time>
      </trkpt>
      <trkpt lat="45.60563" lon="6.10549">
        <ele>1015</ele>
        <time>2014-02-22T14:22:12Z</time>
      </trkpt>
      <trkpt lat="45.6056" lon="6.1055">
        <ele>1011</ele>
        <time>2014-02-22T14:22:16Z</time>
      </trkpt>
      <trkpt lat="45.60561" lon="6.10549">
        <ele>1003</ele>
        <time>2014-02-22T14:22:23Z</time>
      </trkpt>
      <trkpt lat="45.60562" lon="6.10548">
        <ele>1001</ele>
        <time>2014-02-22T14:22:25Z</time>
      </trkpt>
      <trkpt lat="45.60565" lon="6.10544">
        <ele>995</ele>
        <time>2014-02-22T14:22:30Z</time>
      </trkpt>
      <trkpt lat="45.60566" lon="6.10544">
        <ele>995</ele>
        <time>2014-02-22T14:22:32Z</time>
      </trkpt>
      <trkpt lat="45.60568" lon="6.10544">
        <ele>997</ele>
        <time>2014-02-22T14:22:34Z</time>
      </trkpt>
      <trkpt lat="45.60569" lon="6.10544">
        <ele>999</ele>
        <time>2014-02-22T14:22:36Z</time>
      </trkpt>
      <trkpt lat="45.60571" lon="6.10544">
        <ele>1002</ele>
        <time>2014-02-22T14:22:39Z</time>
      </trkpt>
      <trkpt lat="45.60572" lon="6.10544">
        <ele>1003</ele>
        <time>2014-02-22T14:22:41Z</time>
      </trkpt>
      <trkpt lat="45.60574" lon="6.10543">
        <ele>1004</ele>
        <time>2014-02-22T14:22:43Z</time>
      </trkpt>
      <trkpt lat="45.60577" lon="6.10542">
        <ele>1005</ele>
        <time>2014-02-22T14:22:45Z</time>
      </trkpt>
      <trkpt lat="45.60579" lon="6.1054">
        <ele>1005</ele>
        <time>2014-02-22T14:22:47Z</time>
      </trkpt>
      <trkpt lat="45.60579" lon="6.10539">
        <ele>1005</ele>
        <time>2014-02-22T14:22:50Z</time>
      </trkpt>
      <trkpt lat="45.60583" lon="6.10535">
        <ele>1001</ele>
        <time>2014-02-22T14:22:53Z</time>
      </trkpt>
      <trkpt lat="45.60585" lon="6.10534">
        <ele>1001</ele>
        <time>2014-02-22T14:22:55Z</time>
      </trkpt>
      <trkpt lat="45.60588" lon="6.10533">
        <ele>1001</ele>
        <time>2014-02-22T14:22:57Z</time>
      </trkpt>
      <trkpt lat="45.60592" lon="6.10533">
        <ele>1002</ele>
        <time>2014-02-22T14:22:59Z</time>
      </trkpt>
      <trkpt lat="45.60595" lon="6.10532">
        <ele>1004</ele>
        <time>2014-02-22T14:23:01Z</time>
      </trkpt>
      <trkpt lat="45.60598" lon="6.10531">
        <ele>1006</ele>
        <time>2014-02-22T14:23:03Z</time>
      </trkpt>
      <trkpt lat="45.60602" lon="6.1053">
        <ele>1010</ele>
        <time>2014-02-22T14:23:05Z</time>
      </trkpt>
      <trkpt lat="45.60606" lon="6.10529">
        <ele>1014</ele>
        <time>2014-02-22T14:23:07Z</time>
      </trkpt>
      <trkpt lat="45.60611" lon="6.10528">
        <ele>1018</ele>
        <time>2014-02-22T14:23:09Z</time>
      </trkpt>
      <trkpt lat="45.6061" lon="6.1053">
        <ele>1023</ele>
        <time>2014-02-22T14:23:15Z</time>
      </trkpt>
      <trkpt lat="45.60607" lon="6.10531">
        <ele>1025</ele>
        <time>2014-02-22T14:23:18Z</time>
      </trkpt>
      <trkpt lat="45.606" lon="6.10536">
        <ele>1035</ele>
        <time>2014-02-22T14:23:23Z</time>
      </trkpt>
      <trkpt lat="45.60599" lon="6.10536">
        <ele>1038</ele>
        <time>2014-02-22T14:23:26Z</time>
      </trkpt>
      <trkpt lat="45.60602" lon="6.10533">
        <ele>1043</ele>
        <time>2014-02-22T14:23:29Z</time>
      </trkpt>
      <trkpt lat="45.60603" lon="6.1053">
        <ele>1043</ele>
        <time>2014-02-22T14:23:31Z</time>
      </trkpt>
      <trkpt lat="45.60605" lon="6.10529">
        <ele>1043</ele>
        <time>2014-02-22T14:23:33Z</time>
      </trkpt>
      <trkpt lat="45.60606" lon="6.10528">
        <ele>1041</ele>
        <time>2014-02-22T14:23:35Z</time>
      </trkpt>
      <trkpt lat="45.60608" lon="6.1053">
        <ele>1041</ele>
        <time>2014-02-22T14:23:37Z</time>
      </trkpt>
      <trkpt lat="45.60611" lon="6.10529">
        <ele>1041</ele>
        <time>2014-02-22T14:23:39Z</time>
      </trkpt>
      <trkpt lat="45.60614" lon="6.1053">
        <ele>1041</ele>
        <time>2014-02-22T14:23:43Z</time>
      </trkpt>
      <trkpt lat="45.60616" lon="6.1053">
        <ele>1041</ele>
        <time>2014-02-22T14:23:45Z</time>
      </trkpt>
      <trkpt lat="45.60617" lon="6.1053">
        <ele>1041</ele>
        <time>2014-02-22T14:23:51Z</time>
      </trkpt>
      <trkpt lat="45.60617" lon="6.10528">
        <ele>1040</ele>
        <time>2014-02-22T14:23:53Z</time>
      </trkpt>
      <trkpt lat="45.60617" lon="6.10524">
        <ele>1038</ele>
        <time>2014-02-22T14:23:55Z</time>
      </trkpt>
      <trkpt lat="45.60616" lon="6.10522">
        <ele>1036</ele>
        <time>2014-02-22T14:23:57Z</time>
      </trkpt>
      <trkpt lat="45.60614" lon="6.10521">
        <ele>1032</ele>
        <time>2014-02-22T14:23:59Z</time>
      </trkpt>
      <trkpt lat="45.60611" lon="6.1052">
        <ele>1028</ele>
        <time>2014-02-22T14:24:01Z</time>
      </trkpt>
      <trkpt lat="45.60609" lon="6.1052">
        <ele>1024</ele>
        <time>2014-02-22T14:24:03Z</time>
      </trkpt>
      <trkpt lat="45.60606" lon="6.10522">
        <ele>1019</ele>
        <time>2014-02-22T14:24:05Z</time>
      </trkpt>
      <trkpt lat="45.60605" lon="6.10523">
        <ele>1015</ele>
        <time>2014-02-22T14:24:07Z</time>
      </trkpt>
      <trkpt lat="45.60603" lon="6.10523">
        <ele>1009</ele>
        <time>2014-02-22T14:24:10Z</time>
      </trkpt>
      <trkpt lat="45.60602" lon="6.10523">
        <ele>1006</ele>
        <time>2014-02-22T14:24:12Z</time>
      </trkpt>
      <trkpt lat="45.60606" lon="6.10522">
        <ele>999</ele>
        <time>2014-02-22T14:24:17Z</time>
      </trkpt>
      <trkpt lat="45.60609" lon="6.10519">
        <ele>997</ele>
        <time>2014-02-22T14:24:20Z</time>
      </trkpt>
      <trkpt lat="45.60607" lon="6.10519">
        <ele>997</ele>
        <time>2014-02-22T14:24:22Z</time>
      </trkpt>
      <trkpt lat="45.60605" lon="6.10522">
        <ele>997</ele>
        <time>2014-02-22T14:24:25Z</time>
      </trkpt>
      <trkpt lat="45.60605" lon="6.10524">
        <ele>999</ele>
        <time>2014-02-22T14:24:27Z</time>
      </trkpt>
      <trkpt lat="45.60606" lon="6.10525">
        <ele>1001</ele>
        <time>2014-02-22T14:24:29Z</time>
      </trkpt>
      <trkpt lat="45.60605" lon="6.10528">
        <ele>1003</ele>
        <time>2014-02-22T14:24:31Z</time>
      </trkpt>
      <trkpt lat="45.60607" lon="6.1053">
        <ele>1005</ele>
        <time>2014-02-22T14:24:33Z</time>
      </trkpt>
      <trkpt lat="45.60606" lon="6.10532">
        <ele>1007</ele>
        <time>2014-02-22T14:24:35Z</time>
      </trkpt>
      <trkpt lat="45.60605" lon="6.1053">
        <ele>1010</ele>
        <time>2014-02-22T14:24:38Z</time>
      </trkpt>
      <trkpt lat="45.60604" lon="6.1053">
        <ele>1016</ele>
        <time>2014-02-22T14:24:42Z</time>
      </trkpt>
      <trkpt lat="45.60601" lon="6.1053">
        <ele>1020</ele>
        <time>2014-02-22T14:24:46Z</time>
      </trkpt>
      <trkpt lat="45.60602" lon="6.10531">
        <ele>1023</ele>
        <time>2014-02-22T14:24:49Z</time>
      </trkpt>
      <trkpt lat="45.60605" lon="6.10532">
        <ele>1025</ele>
        <time>2014-02-22T14:24:51Z</time>
      </trkpt>
      <trkpt lat="45.60606" lon="6.10532">
        <ele>1025</ele>
        <time>2014-02-22T14:24:54Z</time>
      </trkpt>
      <trkpt lat="45.60604" lon="6.10528">
        <ele>1012</ele>
        <time>2014-02-22T14:25:01Z</time>
      </trkpt>
      <trkpt lat="45.60605" lon="6.10527">
        <ele>1015</ele>
        <time>2014-02-22T14:25:04Z</time>
      </trkpt>
      <trkpt lat="45.60606" lon="6.10528">
        <ele>1017</ele>
        <time>2014-02-22T14:25:06Z</time>
      </trkpt>
      <trkpt lat="45.60611" lon="6.10529">
        <ele>1019</ele>
        <time>2014-02-22T14:25:08Z</time>
      </trkpt>
      <trkpt lat="45.60614" lon="6.1053">
        <ele>1019</ele>
        <time>2014-02-22T14:25:11Z</time>
      </trkpt>
      <trkpt lat="45.60616" lon="6.10529">
        <ele>1019</ele>
        <time>2014-02-22T14:25:15Z</time>
      </trkpt>
      <trkpt lat="45.60617" lon="6.10527">
        <ele>1017</ele>
        <time>2014-02-22T14:25:17Z</time>
      </trkpt>
      <trkpt lat="45.60618" lon="6.10528">
        <ele>1017</ele>
        <time>2014-02-22T14:25:19Z</time>
      </trkpt>
      <trkpt lat="45.60619" lon="6.10528">
        <ele>1017</ele>
        <time>2014-02-22T14:25:21Z</time>
      </trkpt>
      <trkpt lat="45.60621" lon="6.10527">
        <ele>1015</ele>
        <time>2014-02-22T14:25:25Z</time>
      </trkpt>
      <trkpt lat="45.60622" lon="6.10525">
        <ele>1012</ele>
        <time>2014-02-22T14:25:28Z</time>
      </trkpt>
      <trkpt lat="45.60623" lon="6.10523">
        <ele>1009</ele>
        <time>2014-02-22T14:25:31Z</time>
      </trkpt>
      <trkpt lat="45.60625" lon="6.10521">
        <ele>1009</ele>
        <time>2014-02-22T14:25:34Z</time>
      </trkpt>
      <trkpt lat="45.60624" lon="6.10519">
        <ele>1009</ele>
        <time>2014-02-22T14:25:36Z</time>
      </trkpt>
      <trkpt lat="45.60622" lon="6.10518">
        <ele>1009</ele>
        <time>2014-02-22T14:25:38Z</time>
      </trkpt>
      <trkpt lat="45.60623" lon="6.10516">
        <ele>1009</ele>
        <time>2014-02-22T14:25:40Z</time>
      </trkpt>
      <trkpt lat="45.60623" lon="6.10514">
        <ele>1009</ele>
        <time>2014-02-22T14:25:42Z</time>
      </trkpt>
      <trkpt lat="45.60625" lon="6.10511">
        <ele>1009</ele>
        <time>2014-02-22T14:25:45Z</time>
      </trkpt>
      <trkpt lat="45.60627" lon="6.1051">
        <ele>1009</ele>
        <time>2014-02-22T14:25:49Z</time>
      </trkpt>
      <trkpt lat="45.60627" lon="6.10508">
        <ele>1009</ele>
        <time>2014-02-22T14:25:51Z</time>
      </trkpt>
      <trkpt lat="45.60626" lon="6.10507">
        <ele>1009</ele>
        <time>2014-02-22T14:25:53Z</time>
      </trkpt>
      <trkpt lat="45.60624" lon="6.10506">
        <ele>1009</ele>
        <time>2014-02-22T14:25:55Z</time>
      </trkpt>
      <trkpt lat="45.60625" lon="6.10502">
        <ele>1009</ele>
        <time>2014-02-22T14:25:58Z</time>
      </trkpt>
      <trkpt lat="45.60626" lon="6.10501">
        <ele>1009</ele>
        <time>2014-02-22T14:26:01Z</time>
      </trkpt>
      <trkpt lat="45.60626" lon="6.10499">
        <ele>1009</ele>
        <time>2014-02-22T14:26:04Z</time>
      </trkpt>
      <trkpt lat="45.60628" lon="6.10495">
        <ele>1010</ele>
        <time>2014-02-22T14:26:06Z</time>
      </trkpt>
      <trkpt lat="45.60628" lon="6.10494">
        <ele>1010</ele>
        <time>2014-02-22T14:26:08Z</time>
      </trkpt>
      <trkpt lat="45.60628" lon="6.10491">
        <ele>1010</ele>
        <time>2014-02-22T14:26:15Z</time>
      </trkpt>
      <trkpt lat="45.60629" lon="6.10489">
        <ele>1010</ele>
        <time>2014-02-22T14:26:18Z</time>
      </trkpt>
      <trkpt lat="45.60629" lon="6.10487">
        <ele>1010</ele>
        <time>2014-02-22T14:26:21Z</time>
      </trkpt>
      <trkpt lat="45.60632" lon="6.10486">
        <ele>1010</ele>
        <time>2014-02-22T14:26:24Z</time>
      </trkpt>
      <trkpt lat="45.60632" lon="6.10484">
        <ele>1008</ele>
        <time>2014-02-22T14:26:27Z</time>
      </trkpt>
      <trkpt lat="45.60633" lon="6.10482">
        <ele>1003</ele>
        <time>2014-02-22T14:26:32Z</time>
      </trkpt>
      <trkpt lat="45.60636" lon="6.10478">
        <ele>998</ele>
        <time>2014-02-22T14:26:35Z</time>
      </trkpt>
      <trkpt lat="45.60635" lon="6.10477">
        <ele>997</ele>
        <time>2014-02-22T14:26:38Z</time>
      </trkpt>
      <trkpt lat="45.60637" lon="6.10477">
        <ele>997</ele>
        <time>2014-02-22T14:26:44Z</time>
      </trkpt>
      <trkpt lat="45.60638" lon="6.10474">
        <ele>997</ele>
        <time>2014-02-22T14:26:46Z</time>
      </trkpt>
      <trkpt lat="45.60639" lon="6.10471">
        <ele>997</ele>
        <time>2014-02-22T14:26:49Z</time>
      </trkpt>
      <trkpt lat="45.60641" lon="6.10468">
        <ele>1000</ele>
        <time>2014-02-22T14:26:53Z</time>
      </trkpt>
      <trkpt lat="45.60642" lon="6.10466">
        <ele>1000</ele>
        <time>2014-02-22T14:26:55Z</time>
      </trkpt>
      <trkpt lat="45.60645" lon="6.10463">
        <ele>1000</ele>
        <time>2014-02-22T14:26:57Z</time>
      </trkpt>
      <trkpt lat="45.60646" lon="6.10461">
        <ele>999</ele>
        <time>2014-02-22T14:26:59Z</time>
      </trkpt>
      <trkpt lat="45.60648" lon="6.10461">
        <ele>996</ele>
        <time>2014-02-22T14:27:02Z</time>
      </trkpt>
      <trkpt lat="45.60651" lon="6.10462">
        <ele>994</ele>
        <time>2014-02-22T14:27:04Z</time>
      </trkpt>
      <trkpt lat="45.60653" lon="6.1046">
        <ele>993</ele>
        <time>2014-02-22T14:27:06Z</time>
      </trkpt>
      <trkpt lat="45.60654" lon="6.10458">
        <ele>993</ele>
        <time>2014-02-22T14:27:08Z</time>
      </trkpt>
      <trkpt lat="45.60656" lon="6.10457">
        <ele>991</ele>
        <time>2014-02-22T14:27:10Z</time>
      </trkpt>
      <trkpt lat="45.60659" lon="6.10457">
        <ele>990</ele>
        <time>2014-02-22T14:27:12Z</time>
      </trkpt>
      <trkpt lat="45.60661" lon="6.10456">
        <ele>990</ele>
        <time>2014-02-22T14:27:15Z</time>
      </trkpt>
      <trkpt lat="45.60663" lon="6.10454">
        <ele>989</ele>
        <time>2014-02-22T14:27:17Z</time>
      </trkpt>
      <trkpt lat="45.60664" lon="6.10452">
        <ele>988</ele>
        <time>2014-02-22T14:27:19Z</time>
      </trkpt>
      <trkpt lat="45.60666" lon="6.10451">
        <ele>987</ele>
        <time>2014-02-22T14:27:21Z</time>
      </trkpt>
      <trkpt lat="45.60668" lon="6.10451">
        <ele>987</ele>
        <time>2014-02-22T14:27:23Z</time>
      </trkpt>
      <trkpt lat="45.6067" lon="6.10449">
        <ele>987</ele>
        <time>2014-02-22T14:27:25Z</time>
      </trkpt>
      <trkpt lat="45.60671" lon="6.10447">
        <ele>987</ele>
        <time>2014-02-22T14:27:28Z</time>
      </trkpt>
      <trkpt lat="45.60673" lon="6.10445">
        <ele>987</ele>
        <time>2014-02-22T14:27:30Z</time>
      </trkpt>
      <trkpt lat="45.60675" lon="6.10445">
        <ele>987</ele>
        <time>2014-02-22T14:27:33Z</time>
      </trkpt>
      <trkpt lat="45.60681" lon="6.10447">
        <ele>987</ele>
        <time>2014-02-22T14:27:36Z</time>
      </trkpt>
      <trkpt lat="45.60685" lon="6.10448">
        <ele>986</ele>
        <time>2014-02-22T14:27:38Z</time>
      </trkpt>
      <trkpt lat="45.60688" lon="6.10449">
        <ele>985</ele>
        <time>2014-02-22T14:27:40Z</time>
      </trkpt>
      <trkpt lat="45.60689" lon="6.10447">
        <ele>983</ele>
        <time>2014-02-22T14:27:42Z</time>
      </trkpt>
      <trkpt lat="45.60689" lon="6.10445">
        <ele>982</ele>
        <time>2014-02-22T14:27:45Z</time>
      </trkpt>
      <trkpt lat="45.60688" lon="6.10443">
        <ele>982</ele>
        <time>2014-02-22T14:27:47Z</time>
      </trkpt>
      <trkpt lat="45.60688" lon="6.10441">
        <ele>982</ele>
        <time>2014-02-22T14:27:49Z</time>
      </trkpt>
      <trkpt lat="45.60688" lon="6.10437">
        <ele>982</ele>
        <time>2014-02-22T14:27:52Z</time>
      </trkpt>
      <trkpt lat="45.60686" lon="6.10434">
        <ele>982</ele>
        <time>2014-02-22T14:27:54Z</time>
      </trkpt>
      <trkpt lat="45.60687" lon="6.1043">
        <ele>982</ele>
        <time>2014-02-22T14:27:57Z</time>
      </trkpt>
      <trkpt lat="45.60686" lon="6.10427">
        <ele>982</ele>
        <time>2014-02-22T14:27:59Z</time>
      </trkpt>
      <trkpt lat="45.60686" lon="6.10426">
        <ele>982</ele>
        <time>2014-02-22T14:28:02Z</time>
      </trkpt>
      <trkpt lat="45.60686" lon="6.10424">
        <ele>982</ele>
        <time>2014-02-22T14:28:07Z</time>
      </trkpt>
      <trkpt lat="45.60687" lon="6.10421">
        <ele>983</ele>
        <time>2014-02-22T14:28:09Z</time>
      </trkpt>
      <trkpt lat="45.60688" lon="6.10417">
        <ele>983</ele>
        <time>2014-02-22T14:28:11Z</time>
      </trkpt>
      <trkpt lat="45.60689" lon="6.10413">
        <ele>984</ele>
        <time>2014-02-22T14:28:13Z</time>
      </trkpt>
      <trkpt lat="45.60691" lon="6.1041">
        <ele>984</ele>
        <time>2014-02-22T14:28:15Z</time>
      </trkpt>
      <trkpt lat="45.6069" lon="6.10407">
        <ele>984</ele>
        <time>2014-02-22T14:28:18Z</time>
      </trkpt>
      <trkpt lat="45.60692" lon="6.10405">
        <ele>982</ele>
        <time>2014-02-22T14:28:20Z</time>
      </trkpt>
      <trkpt lat="45.60693" lon="6.10401">
        <ele>980</ele>
        <time>2014-02-22T14:28:22Z</time>
      </trkpt>
      <trkpt lat="45.60695" lon="6.10398">
        <ele>977</ele>
        <time>2014-02-22T14:28:25Z</time>
      </trkpt>
      <trkpt lat="45.60696" lon="6.104">
        <ele>974</ele>
        <time>2014-02-22T14:28:29Z</time>
      </trkpt>
      <trkpt lat="45.607" lon="6.10399">
        <ele>974</ele>
        <time>2014-02-22T14:28:31Z</time>
      </trkpt>
      <trkpt lat="45.60703" lon="6.10398">
        <ele>974</ele>
        <time>2014-02-22T14:28:34Z</time>
      </trkpt>
      <trkpt lat="45.60704" lon="6.10394">
        <ele>974</ele>
        <time>2014-02-22T14:28:36Z</time>
      </trkpt>
      <trkpt lat="45.60706" lon="6.10393">
        <ele>974</ele>
        <time>2014-02-22T14:28:38Z</time>
      </trkpt>
      <trkpt lat="45.60709" lon="6.10396">
        <ele>973</ele>
        <time>2014-02-22T14:28:41Z</time>
      </trkpt>
      <trkpt lat="45.60711" lon="6.10397">
        <ele>973</ele>
        <time>2014-02-22T14:28:43Z</time>
      </trkpt>
      <trkpt lat="45.60713" lon="6.10397">
        <ele>973</ele>
        <time>2014-02-22T14:28:45Z</time>
      </trkpt>
      <trkpt lat="45.60714" lon="6.10389">
        <ele>976</ele>
        <time>2014-02-22T14:28:49Z</time>
      </trkpt>
      <trkpt lat="45.60713" lon="6.10387">
        <ele>978</ele>
        <time>2014-02-22T14:28:53Z</time>
      </trkpt>
      <trkpt lat="45.60713" lon="6.10386">
        <ele>978</ele>
        <time>2014-02-22T14:28:56Z</time>
      </trkpt>
      <trkpt lat="45.60712" lon="6.10384">
        <ele>979</ele>
        <time>2014-02-22T14:28:58Z</time>
      </trkpt>
      <trkpt lat="45.60713" lon="6.10382">
        <ele>980</ele>
        <time>2014-02-22T14:29:00Z</time>
      </trkpt>
      <trkpt lat="45.60713" lon="6.1038">
        <ele>981</ele>
        <time>2014-02-22T14:29:05Z</time>
      </trkpt>
      <trkpt lat="45.60713" lon="6.10379">
        <ele>981</ele>
        <time>2014-02-22T14:29:07Z</time>
      </trkpt>
      <trkpt lat="45.60712" lon="6.10377">
        <ele>981</ele>
        <time>2014-02-22T14:29:09Z</time>
      </trkpt>
      <trkpt lat="45.60712" lon="6.10375">
        <ele>981</ele>
        <time>2014-02-22T14:29:11Z</time>
      </trkpt>
      <trkpt lat="45.60711" lon="6.10373">
        <ele>981</ele>
        <time>2014-02-22T14:29:13Z</time>
      </trkpt>
      <trkpt lat="45.60712" lon="6.10371">
        <ele>981</ele>
        <time>2014-02-22T14:29:15Z</time>
      </trkpt>
      <trkpt lat="45.60711" lon="6.10369">
        <ele>981</ele>
        <time>2014-02-22T14:29:19Z</time>
      </trkpt>
      <trkpt lat="45.60711" lon="6.10366">
        <ele>981</ele>
        <time>2014-02-22T14:29:21Z</time>
      </trkpt>
      <trkpt lat="45.60712" lon="6.10364">
        <ele>981</ele>
        <time>2014-02-22T14:29:23Z</time>
      </trkpt>
      <trkpt lat="45.60712" lon="6.10363">
        <ele>981</ele>
        <time>2014-02-22T14:29:25Z</time>
      </trkpt>
      <trkpt lat="45.60712" lon="6.10359">
        <ele>981</ele>
        <time>2014-02-22T14:29:27Z</time>
      </trkpt>
      <trkpt lat="45.60712" lon="6.10356">
        <ele>981</ele>
        <time>2014-02-22T14:29:29Z</time>
      </trkpt>
      <trkpt lat="45.60712" lon="6.10352">
        <ele>981</ele>
        <time>2014-02-22T14:29:31Z</time>
      </trkpt>
      <trkpt lat="45.60714" lon="6.10351">
        <ele>981</ele>
        <time>2014-02-22T14:29:33Z</time>
      </trkpt>
      <trkpt lat="45.60715" lon="6.10347">
        <ele>979</ele>
        <time>2014-02-22T14:29:35Z</time>
      </trkpt>
      <trkpt lat="45.60715" lon="6.10344">
        <ele>978</ele>
        <time>2014-02-22T14:29:37Z</time>
      </trkpt>
      <trkpt lat="45.60715" lon="6.1034">
        <ele>976</ele>
        <time>2014-02-22T14:29:39Z</time>
      </trkpt>
      <trkpt lat="45.60717" lon="6.10337">
        <ele>974</ele>
        <time>2014-02-22T14:29:42Z</time>
      </trkpt>
      <trkpt lat="45.60718" lon="6.10335">
        <ele>973</ele>
        <time>2014-02-22T14:29:44Z</time>
      </trkpt>
      <trkpt lat="45.6072" lon="6.10332">
        <ele>973</ele>
        <time>2014-02-22T14:29:46Z</time>
      </trkpt>
      <trkpt lat="45.60721" lon="6.10329">
        <ele>973</ele>
        <time>2014-02-22T14:29:48Z</time>
      </trkpt>
      <trkpt lat="45.60722" lon="6.10325">
        <ele>973</ele>
        <time>2014-02-22T14:29:51Z</time>
      </trkpt>
      <trkpt lat="45.60725" lon="6.10322">
        <ele>973</ele>
        <time>2014-02-22T14:29:53Z</time>
      </trkpt>
      <trkpt lat="45.60725" lon="6.1032">
        <ele>973</ele>
        <time>2014-02-22T14:29:55Z</time>
      </trkpt>
      <trkpt lat="45.60724" lon="6.10315">
        <ele>973</ele>
        <time>2014-02-22T14:29:58Z</time>
      </trkpt>
      <trkpt lat="45.60724" lon="6.10311">
        <ele>971</ele>
        <time>2014-02-22T14:30:00Z</time>
      </trkpt>
      <trkpt lat="45.60725" lon="6.10307">
        <ele>968</ele>
        <time>2014-02-22T14:30:03Z</time>
      </trkpt>
      <trkpt lat="45.60725" lon="6.10305">
        <ele>966</ele>
        <time>2014-02-22T14:30:05Z</time>
      </trkpt>
      <trkpt lat="45.60725" lon="6.10301">
        <ele>963</ele>
        <time>2014-02-22T14:30:08Z</time>
      </trkpt>
      <trkpt lat="45.60727" lon="6.10299">
        <ele>962</ele>
        <time>2014-02-22T14:30:10Z</time>
      </trkpt>
      <trkpt lat="45.60728" lon="6.10296">
        <ele>962</ele>
        <time>2014-02-22T14:30:12Z</time>
      </trkpt>
      <trkpt lat="45.60729" lon="6.10294">
        <ele>962</ele>
        <time>2014-02-22T14:30:14Z</time>
      </trkpt>
      <trkpt lat="45.6073" lon="6.10291">
        <ele>962</ele>
        <time>2014-02-22T14:30:16Z</time>
      </trkpt>
      <trkpt lat="45.60732" lon="6.10288">
        <ele>962</ele>
        <time>2014-02-22T14:30:18Z</time>
      </trkpt>
      <trkpt lat="45.60734" lon="6.10285">
        <ele>962</ele>
        <time>2014-02-22T14:30:20Z</time>
      </trkpt>
      <trkpt lat="45.60735" lon="6.10282">
        <ele>962</ele>
        <time>2014-02-22T14:30:24Z</time>
      </trkpt>
      <trkpt lat="45.60736" lon="6.10279">
        <ele>963</ele>
        <time>2014-02-22T14:30:26Z</time>
      </trkpt>
      <trkpt lat="45.6074" lon="6.10277">
        <ele>964</ele>
        <time>2014-02-22T14:30:28Z</time>
      </trkpt>
      <trkpt lat="45.60742" lon="6.10275">
        <ele>965</ele>
        <time>2014-02-22T14:30:31Z</time>
      </trkpt>
      <trkpt lat="45.60743" lon="6.10275">
        <ele>965</ele>
        <time>2014-02-22T14:30:33Z</time>
      </trkpt>
      <trkpt lat="45.60741" lon="6.10274">
        <ele>963</ele>
        <time>2014-02-22T14:30:37Z</time>
      </trkpt>
      <trkpt lat="45.6074" lon="6.10275">
        <ele>961</ele>
        <time>2014-02-22T14:30:39Z</time>
      </trkpt>
      <trkpt lat="45.6074" lon="6.10273">
        <ele>961</ele>
        <time>2014-02-22T14:30:41Z</time>
      </trkpt>
      <trkpt lat="45.60738" lon="6.10271">
        <ele>961</ele>
        <time>2014-02-22T14:30:43Z</time>
      </trkpt>
      <trkpt lat="45.60738" lon="6.10269">
        <ele>961</ele>
        <time>2014-02-22T14:30:45Z</time>
      </trkpt>
      <trkpt lat="45.60736" lon="6.10266">
        <ele>961</ele>
        <time>2014-02-22T14:30:47Z</time>
      </trkpt>
      <trkpt lat="45.60738" lon="6.10264">
        <ele>961</ele>
        <time>2014-02-22T14:30:49Z</time>
      </trkpt>
      <trkpt lat="45.60741" lon="6.10264">
        <ele>961</ele>
        <time>2014-02-22T14:30:51Z</time>
      </trkpt>
      <trkpt lat="45.60743" lon="6.10266">
        <ele>960</ele>
        <time>2014-02-22T14:30:54Z</time>
      </trkpt>
      <trkpt lat="45.60741" lon="6.10268">
        <ele>959</ele>
        <time>2014-02-22T14:30:56Z</time>
      </trkpt>
      <trkpt lat="45.6074" lon="6.1027">
        <ele>958</ele>
        <time>2014-02-22T14:30:58Z</time>
      </trkpt>
      <trkpt lat="45.60741" lon="6.10266">
        <ele>952</ele>
        <time>2014-02-22T14:31:02Z</time>
      </trkpt>
      <trkpt lat="45.60742" lon="6.10265">
        <ele>950</ele>
        <time>2014-02-22T14:31:04Z</time>
      </trkpt>
    </trkseg>
  </trk>
</gpx>